sensor_id;sensor_type;location;lat;lon;timestamp;P1;P2;P0
74880;PMS5003;63427;49.654;6.596;2023-12-28T00:02:46;13;12;
74880;PMS5003;63427;49.654;6.596;2023-12-28T00:07:43;13;12;
74880;PMS5003;63427;49.654;6.596;2023-12-28T00:10:02;14;14;
74880;PMS5003;63427;49.654;6.596;2023-12-28T00:12:27;15;14;
74880;PMS5003;63427;49.654;6.596;2023-12-28T00:14:52;15;15;
74880;PMS5003;63427;49.654;6.596;2023-12-28T00:17:17;14;14;
74880;PMS5003;63427;49.654;6.596;2023-12-28T00:19:43;16;16;
74880;PMS5003;63427;49.654;6.596;2023-12-28T00:22:08;13;13;
74880;PMS5003;63427;49.654;6.596;2023-12-28T00:24:33;15;14;
74880;PMS5003;63427;49.654;6.596;2023-12-28T00:26:59;15;15;
74880;PMS5003;63427;49.654;6.596;2023-12-28T00:29:25;13;13;
74880;PMS5003;63427;49.654;6.596;2023-12-28T00:31:50;14;14;
74880;PMS5003;63427;49.654;6.596;2023-12-28T00:34:16;12;12;
74880;PMS5003;63427;49.654;6.596;2023-12-28T00:36:41;15;15;
74880;PMS5003;63427;49.654;6.596;2023-12-28T00:39:07;15;14;
74880;PMS5003;63427;49.654;6.596;2023-12-28T00:41:32;14;14;
74880;PMS5003;63427;49.654;6.596;2023-12-28T00:43:58;14;13;
74880;PMS5003;63427;49.654;6.596;2023-12-28T00:46:23;14;13;
74880;PMS5003;63427;49.654;6.596;2023-12-28T00:48:49;13;13;
74880;PMS5003;63427;49.654;6.596;2023-12-28T00:51:15;14;13;
74880;PMS5003;63427;49.654;6.596;2023-12-28T00:53:40;13;12;
74880;PMS5003;63427;49.654;6.596;2023-12-28T00:56:05;12;10;
74880;PMS5003;63427;49.654;6.596;2023-12-28T00:58:31;13;13;
74880;PMS5003;63427;49.654;6.596;2023-12-28T01:00:57;12;12;
74880;PMS5003;63427;49.654;6.596;2023-12-28T01:13:04;11;11;
74880;PMS5003;63427;49.654;6.596;2023-12-28T01:15:30;14;13;
74880;PMS5003;63427;49.654;6.596;2023-12-28T01:17:56;9;8;
74880;PMS5003;63427;49.654;6.596;2023-12-28T01:20:21;13;13;
74880;PMS5003;63427;49.654;6.596;2023-12-28T01:22:47;12;12;
74880;PMS5003;63427;49.654;6.596;2023-12-28T01:25:12;12;12;
74880;PMS5003;63427;49.654;6.596;2023-12-28T01:27:38;11;10;
74880;PMS5003;63427;49.654;6.596;2023-12-28T01:30:04;11;10;
74880;PMS5003;63427;49.654;6.596;2023-12-28T01:32:29;13;12;
74880;PMS5003;63427;49.654;6.596;2023-12-28T01:34:54;11;10;
74880;PMS5003;63427;49.654;6.596;2023-12-28T01:37:21;10;10;
74880;PMS5003;63427;49.654;6.596;2023-12-28T01:39:46;11;10;
74880;PMS5003;63427;49.654;6.596;2023-12-28T01:42:11;11;11;
74880;PMS5003;63427;49.654;6.596;2023-12-28T01:44:37;10;10;
74880;PMS5003;63427;49.654;6.596;2023-12-28T01:47:03;10;10;
74880;PMS5003;63427;49.654;6.596;2023-12-28T01:49:28;9;9;
74880;PMS5003;63427;49.654;6.596;2023-12-28T01:51:54;9;9;
74880;PMS5003;63427;49.654;6.596;2023-12-28T01:54:19;10;10;
74880;PMS5003;63427;49.654;6.596;2023-12-28T01:56:45;9;9;
74880;PMS5003;63427;49.654;6.596;2023-12-28T01:59:10;8;8;
74880;PMS5003;63427;49.654;6.596;2023-12-28T02:01:36;10;9;
74880;PMS5003;63427;49.654;6.596;2023-12-28T02:04:02;9;9;
74880;PMS5003;63427;49.654;6.596;2023-12-28T02:06:27;10;10;
74880;PMS5003;63427;49.654;6.596;2023-12-28T02:08:53;8;8;
74880;PMS5003;63427;49.654;6.596;2023-12-28T02:11:19;10;9;
74880;PMS5003;63427;49.654;6.596;2023-12-28T02:13:45;7;7;
74880;PMS5003;63427;49.654;6.596;2023-12-28T02:16:11;8;8;
74880;PMS5003;63427;49.654;6.596;2023-12-28T02:18:37;8;8;
74880;PMS5003;63427;49.654;6.596;2023-12-28T02:21:01;10;9;
74880;PMS5003;63427;49.654;6.596;2023-12-28T02:23:27;8;8;
74880;PMS5003;63427;49.654;6.596;2023-12-28T02:30:43;7;7;
74880;PMS5003;63427;49.654;6.596;2023-12-28T02:33:11;9;9;
74880;PMS5003;63427;49.654;6.596;2023-12-28T02:35:37;11;10;
74880;PMS5003;63427;49.654;6.596;2023-12-28T02:38:02;10;10;
74880;PMS5003;63427;49.654;6.596;2023-12-28T02:40:26;11;11;
74880;PMS5003;63427;49.654;6.596;2023-12-28T02:42:52;9;8;
74880;PMS5003;63427;49.654;6.596;2023-12-28T02:45:18;7;7;
74880;PMS5003;63427;49.654;6.596;2023-12-28T02:47:43;9;9;
74880;PMS5003;63427;49.654;6.596;2023-12-28T02:50:09;12;11;
74880;PMS5003;63427;49.654;6.596;2023-12-28T02:52:34;11;10;
74880;PMS5003;63427;49.654;6.596;2023-12-28T02:55:00;9;9;
74880;PMS5003;63427;49.654;6.596;2023-12-28T02:57:25;8;8;
74880;PMS5003;63427;49.654;6.596;2023-12-28T02:59:51;8;8;
74880;PMS5003;63427;49.654;6.596;2023-12-28T03:02:17;8;8;
74880;PMS5003;63427;49.654;6.596;2023-12-28T03:04:42;10;10;
74880;PMS5003;63427;49.654;6.596;2023-12-28T03:07:08;12;11;
74880;PMS5003;63427;49.654;6.596;2023-12-28T03:09:33;11;10;
74880;PMS5003;63427;49.654;6.596;2023-12-28T03:11:59;10;10;
74880;PMS5003;63427;49.654;6.596;2023-12-28T03:14:25;11;10;
74880;PMS5003;63427;49.654;6.596;2023-12-28T03:16:50;8;8;
74880;PMS5003;63427;49.654;6.596;2023-12-28T03:19:16;9;9;
74880;PMS5003;63427;49.654;6.596;2023-12-28T03:21:41;10;10;
74880;PMS5003;63427;49.654;6.596;2023-12-28T03:24:07;8;8;
74880;PMS5003;63427;49.654;6.596;2023-12-28T03:26:39;9;9;
74880;PMS5003;63427;49.654;6.596;2023-12-28T03:28:59;9;9;
74880;PMS5003;63427;49.654;6.596;2023-12-28T03:31:24;10;9;
74880;PMS5003;63427;49.654;6.596;2023-12-28T03:33:49;11;10;
74880;PMS5003;63427;49.654;6.596;2023-12-28T03:43:32;9;9;
74880;PMS5003;63427;49.654;6.596;2023-12-28T03:48:23;9;9;
74880;PMS5003;63427;49.654;6.596;2023-12-28T03:50:49;11;11;
74880;PMS5003;63427;49.654;6.596;2023-12-28T03:53:14;11;11;
74880;PMS5003;63427;49.654;6.596;2023-12-28T03:55:40;11;10;
74880;PMS5003;63427;49.654;6.596;2023-12-28T03:58:05;10;9;
74880;PMS5003;63427;49.654;6.596;2023-12-28T04:05:22;9;9;
74880;PMS5003;63427;49.654;6.596;2023-12-28T04:07:48;8;7;
74880;PMS5003;63427;49.654;6.596;2023-12-28T04:10:15;10;9;
74880;PMS5003;63427;49.654;6.596;2023-12-28T04:12:39;9;8;
74880;PMS5003;63427;49.654;6.596;2023-12-28T04:15:05;10;10;
74880;PMS5003;63427;49.654;6.596;2023-12-28T04:17:33;8;8;
74880;PMS5003;63427;49.654;6.596;2023-12-28T04:19:55;9;9;
74880;PMS5003;63427;49.654;6.596;2023-12-28T04:22:21;8;8;
74880;PMS5003;63427;49.654;6.596;2023-12-28T04:24:46;8;8;
74880;PMS5003;63427;49.654;6.596;2023-12-28T04:27:12;10;9;
74880;PMS5003;63427;49.654;6.596;2023-12-28T04:29:37;6;6;
74880;PMS5003;63427;49.654;6.596;2023-12-28T04:32:03;7;7;
74880;PMS5003;63427;49.654;6.596;2023-12-28T04:34:28;7;7;
74880;PMS5003;63427;49.654;6.596;2023-12-28T04:36:54;8;8;
74880;PMS5003;63427;49.654;6.596;2023-12-28T04:39:20;9;9;
74880;PMS5003;63427;49.654;6.596;2023-12-28T04:41:45;8;8;
74880;PMS5003;63427;49.654;6.596;2023-12-28T04:44:20;8;8;
74880;PMS5003;63427;49.654;6.596;2023-12-28T04:46:38;12;10;
74880;PMS5003;63427;49.654;6.596;2023-12-28T04:49:02;8;8;
74880;PMS5003;63427;49.654;6.596;2023-12-28T04:51:28;8;8;
74880;PMS5003;63427;49.654;6.596;2023-12-28T04:53:53;6;6;
74880;PMS5003;63427;49.654;6.596;2023-12-28T04:58:44;7;7;
74880;PMS5003;63427;49.654;6.596;2023-12-28T05:01:10;7;7;
74880;PMS5003;63427;49.654;6.596;2023-12-28T05:03:36;8;7;
74880;PMS5003;63427;49.654;6.596;2023-12-28T05:06:01;10;8;
74880;PMS5003;63427;49.654;6.596;2023-12-28T05:08:26;9;8;
74880;PMS5003;63427;49.654;6.596;2023-12-28T05:10:52;6;6;
74880;PMS5003;63427;49.654;6.596;2023-12-28T05:13:18;8;8;
74880;PMS5003;63427;49.654;6.596;2023-12-28T05:15:43;6;6;
74880;PMS5003;63427;49.654;6.596;2023-12-28T05:18:11;7;6;
74880;PMS5003;63427;49.654;6.596;2023-12-28T05:20:34;7;7;
74880;PMS5003;63427;49.654;6.596;2023-12-28T05:23:00;9;8;
74880;PMS5003;63427;49.654;6.596;2023-12-28T05:25:25;6;6;
74880;PMS5003;63427;49.654;6.596;2023-12-28T05:27:51;9;8;
74880;PMS5003;63427;49.654;6.596;2023-12-28T05:32:42;5;5;
74880;PMS5003;63427;49.654;6.596;2023-12-28T05:35:08;6;6;
74880;PMS5003;63427;49.654;6.596;2023-12-28T05:37:33;8;8;
74880;PMS5003;63427;49.654;6.596;2023-12-28T05:40:06;8;8;
74880;PMS5003;63427;49.654;6.596;2023-12-28T05:42:24;6;6;
74880;PMS5003;63427;49.654;6.596;2023-12-28T05:44:50;7;6;
74880;PMS5003;63427;49.654;6.596;2023-12-28T05:47:15;6;6;
74880;PMS5003;63427;49.654;6.596;2023-12-28T05:49:41;6;6;
74880;PMS5003;63427;49.654;6.596;2023-12-28T05:52:06;6;6;
74880;PMS5003;63427;49.654;6.596;2023-12-28T05:56:57;7;7;
74880;PMS5003;63427;49.654;6.596;2023-12-28T05:59:23;12;11;
74880;PMS5003;63427;49.654;6.596;2023-12-28T06:04:14;9;8;
74880;PMS5003;63427;49.654;6.596;2023-12-28T06:06:39;7;7;
74880;PMS5003;63427;49.654;6.596;2023-12-28T06:09:05;8;7;
74880;PMS5003;63427;49.654;6.596;2023-12-28T06:11:31;6;6;
74880;PMS5003;63427;49.654;6.596;2023-12-28T06:13:57;7;7;
74880;PMS5003;63427;49.654;6.596;2023-12-28T06:16:22;6;6;
74880;PMS5003;63427;49.654;6.596;2023-12-28T06:18:47;6;6;
74880;PMS5003;63427;49.654;6.596;2023-12-28T06:21:18;6;6;
74880;PMS5003;63427;49.654;6.596;2023-12-28T06:23:38;7;6;
74880;PMS5003;63427;49.654;6.596;2023-12-28T06:26:04;6;6;
74880;PMS5003;63427;49.654;6.596;2023-12-28T06:28:29;4;4;
74880;PMS5003;63427;49.654;6.596;2023-12-28T06:30:55;8;8;
74880;PMS5003;63427;49.654;6.596;2023-12-28T06:33:20;5;5;
74880;PMS5003;63427;49.654;6.596;2023-12-28T06:35:46;7;6;
74880;PMS5003;63427;49.654;6.596;2023-12-28T06:38:12;7;7;
74880;PMS5003;63427;49.654;6.596;2023-12-28T06:40:37;8;7;
74880;PMS5003;63427;49.654;6.596;2023-12-28T06:43:03;5;5;
74880;PMS5003;63427;49.654;6.596;2023-12-28T06:45:28;8;7;
74880;PMS5003;63427;49.654;6.596;2023-12-28T06:47:54;8;7;
74880;PMS5003;63427;49.654;6.596;2023-12-28T06:50:19;7;7;
74880;PMS5003;63427;49.654;6.596;2023-12-28T06:52:45;5;5;
74880;PMS5003;63427;49.654;6.596;2023-12-28T06:55:10;7;6;
74880;PMS5003;63427;49.654;6.596;2023-12-28T06:57:36;7;6;
74880;PMS5003;63427;49.654;6.596;2023-12-28T07:00:01;6;6;
74880;PMS5003;63427;49.654;6.596;2023-12-28T07:02:27;5;5;
74880;PMS5003;63427;49.654;6.596;2023-12-28T07:04:53;5;5;
74880;PMS5003;63427;49.654;6.596;2023-12-28T07:07:18;6;6;
74880;PMS5003;63427;49.654;6.596;2023-12-28T07:09:44;6;6;
74880;PMS5003;63427;49.654;6.596;2023-12-28T07:12:09;6;6;
74880;PMS5003;63427;49.654;6.596;2023-12-28T07:14:34;6;6;
74880;PMS5003;63427;49.654;6.596;2023-12-28T07:17:00;6;6;
74880;PMS5003;63427;49.654;6.596;2023-12-28T07:19:25;9;8;
74880;PMS5003;63427;49.654;6.596;2023-12-28T07:21:52;7;7;
74880;PMS5003;63427;49.654;6.596;2023-12-28T07:24:16;6;6;
74880;PMS5003;63427;49.654;6.596;2023-12-28T07:26:42;7;6;
74880;PMS5003;63427;49.654;6.596;2023-12-28T07:29:07;5;5;
74880;PMS5003;63427;49.654;6.596;2023-12-28T07:31:33;6;6;
74880;PMS5003;63427;49.654;6.596;2023-12-28T07:33:59;6;6;
74880;PMS5003;63427;49.654;6.596;2023-12-28T07:36:24;6;6;
74880;PMS5003;63427;49.654;6.596;2023-12-28T07:38:49;7;7;
74880;PMS5003;63427;49.654;6.596;2023-12-28T07:41:15;5;5;
74880;PMS5003;63427;49.654;6.596;2023-12-28T07:43:40;7;6;
74880;PMS5003;63427;49.654;6.596;2023-12-28T07:46:06;7;7;
74880;PMS5003;63427;49.654;6.596;2023-12-28T07:48:32;4;4;
74880;PMS5003;63427;49.654;6.596;2023-12-28T07:50:57;7;6;
74880;PMS5003;63427;49.654;6.596;2023-12-28T07:53:25;7;6;
74880;PMS5003;63427;49.654;6.596;2023-12-28T07:55:48;7;6;
74880;PMS5003;63427;49.654;6.596;2023-12-28T07:58:14;7;7;
74880;PMS5003;63427;49.654;6.596;2023-12-28T08:00:39;5;5;
74880;PMS5003;63427;49.654;6.596;2023-12-28T08:03:05;6;6;
74880;PMS5003;63427;49.654;6.596;2023-12-28T08:05:30;8;7;
74880;PMS5003;63427;49.654;6.596;2023-12-28T08:08:01;7;7;
74880;PMS5003;63427;49.654;6.596;2023-12-28T08:10:21;5;5;
74880;PMS5003;63427;49.654;6.596;2023-12-28T08:12:50;5;5;
74880;PMS5003;63427;49.654;6.596;2023-12-28T08:15:13;6;5;
74880;PMS5003;63427;49.654;6.596;2023-12-28T08:17:38;4;4;
74880;PMS5003;63427;49.654;6.596;2023-12-28T08:20:04;6;6;
74880;PMS5003;63427;49.654;6.596;2023-12-28T08:22:31;7;7;
74880;PMS5003;63427;49.654;6.596;2023-12-28T08:24:55;5;5;
74880;PMS5003;63427;49.654;6.596;2023-12-28T08:27:20;6;6;
74880;PMS5003;63427;49.654;6.596;2023-12-28T08:34:37;5;5;
74880;PMS5003;63427;49.654;6.596;2023-12-28T08:37:02;4;4;
74880;PMS5003;63427;49.654;6.596;2023-12-28T08:39:28;7;6;
74880;PMS5003;63427;49.654;6.596;2023-12-28T08:41:53;5;5;
74880;PMS5003;63427;49.654;6.596;2023-12-28T08:44:19;5;5;
74880;PMS5003;63427;49.654;6.596;2023-12-28T08:46:45;7;7;
74880;PMS5003;63427;49.654;6.596;2023-12-28T08:49:10;5;5;
74880;PMS5003;63427;49.654;6.596;2023-12-28T08:51:35;6;6;
74880;PMS5003;63427;49.654;6.596;2023-12-28T08:54:01;6;6;
74880;PMS5003;63427;49.654;6.596;2023-12-28T08:56:26;5;5;
74880;PMS5003;63427;49.654;6.596;2023-12-28T08:58:52;5;5;
74880;PMS5003;63427;49.654;6.596;2023-12-28T09:01:17;7;6;
74880;PMS5003;63427;49.654;6.596;2023-12-28T09:03:44;4;4;
74880;PMS5003;63427;49.654;6.596;2023-12-28T09:06:08;5;5;
74880;PMS5003;63427;49.654;6.596;2023-12-28T09:08:34;6;6;
74880;PMS5003;63427;49.654;6.596;2023-12-28T09:10:59;5;5;
74880;PMS5003;63427;49.654;6.596;2023-12-28T09:13:24;7;7;
74880;PMS5003;63427;49.654;6.596;2023-12-28T09:15:50;4;4;
74880;PMS5003;63427;49.654;6.596;2023-12-28T09:18:15;5;5;
74880;PMS5003;63427;49.654;6.596;2023-12-28T09:20:41;5;5;
74880;PMS5003;63427;49.654;6.596;2023-12-28T09:23:07;5;5;
74880;PMS5003;63427;49.654;6.596;2023-12-28T09:25:32;7;6;
74880;PMS5003;63427;49.654;6.596;2023-12-28T09:27:58;5;5;
74880;PMS5003;63427;49.654;6.596;2023-12-28T09:30:23;8;5;
74880;PMS5003;63427;49.654;6.596;2023-12-28T09:32:49;5;5;
74880;PMS5003;63427;49.654;6.596;2023-12-28T09:35:14;4;4;
74880;PMS5003;63427;49.654;6.596;2023-12-28T09:37:39;5;5;
74880;PMS5003;63427;49.654;6.596;2023-12-28T09:40:06;4;4;
74880;PMS5003;63427;49.654;6.596;2023-12-28T09:42:32;4;4;
74880;PMS5003;63427;49.654;6.596;2023-12-28T09:44:59;5;5;
74880;PMS5003;63427;49.654;6.596;2023-12-28T09:49:47;5;5;
74880;PMS5003;63427;49.654;6.596;2023-12-28T09:52:12;7;5;
74880;PMS5003;63427;49.654;6.596;2023-12-28T09:54:38;6;6;
74880;PMS5003;63427;49.654;6.596;2023-12-28T09:57:03;4;4;
74880;PMS5003;63427;49.654;6.596;2023-12-28T09:59:28;5;4;
74880;PMS5003;63427;49.654;6.596;2023-12-28T10:01:54;7;7;
74880;PMS5003;63427;49.654;6.596;2023-12-28T10:04:19;6;5;
74880;PMS5003;63427;49.654;6.596;2023-12-28T10:06:45;7;6;
74880;PMS5003;63427;49.654;6.596;2023-12-28T10:09:10;5;4;
74880;PMS5003;63427;49.654;6.596;2023-12-28T10:11:36;4;4;
74880;PMS5003;63427;49.654;6.596;2023-12-28T10:14:01;7;7;
74880;PMS5003;63427;49.654;6.596;2023-12-28T10:16:27;4;4;
74880;PMS5003;63427;49.654;6.596;2023-12-28T10:18:55;4;4;
74880;PMS5003;63427;49.654;6.596;2023-12-28T10:23:43;6;6;
74880;PMS5003;63427;49.654;6.596;2023-12-28T10:26:09;5;5;
74880;PMS5003;63427;49.654;6.596;2023-12-28T10:28:35;4;4;
74880;PMS5003;63427;49.654;6.596;2023-12-28T10:31:00;6;5;
74880;PMS5003;63427;49.654;6.596;2023-12-28T10:33:25;6;6;
74880;PMS5003;63427;49.654;6.596;2023-12-28T10:35:51;3;3;
74880;PMS5003;63427;49.654;6.596;2023-12-28T10:38:17;6;5;
74880;PMS5003;63427;49.654;6.596;2023-12-28T10:40:47;3;3;
74880;PMS5003;63427;49.654;6.596;2023-12-28T10:43:07;4;4;
74880;PMS5003;63427;49.654;6.596;2023-12-28T10:45:33;6;5;
74880;PMS5003;63427;49.654;6.596;2023-12-28T10:48:01;5;5;
74880;PMS5003;63427;49.654;6.596;2023-12-28T11:00:07;5;4;
74880;PMS5003;63427;49.654;6.596;2023-12-28T11:02:34;5;5;
74880;PMS5003;63427;49.654;6.596;2023-12-28T11:04:56;5;5;
74880;PMS5003;63427;49.654;6.596;2023-12-28T11:07:22;5;5;
74880;PMS5003;63427;49.654;6.596;2023-12-28T11:09:47;6;6;
74880;PMS5003;63427;49.654;6.596;2023-12-28T11:12:13;6;5;
74880;PMS5003;63427;49.654;6.596;2023-12-28T11:17:04;5;5;
74880;PMS5003;63427;49.654;6.596;2023-12-28T11:19:29;7;6;
74880;PMS5003;63427;49.654;6.596;2023-12-28T11:22:01;5;5;
74880;PMS5003;63427;49.654;6.596;2023-12-28T11:24:21;5;5;
74880;PMS5003;63427;49.654;6.596;2023-12-28T11:29:11;5;5;
74880;PMS5003;63427;49.654;6.596;2023-12-28T11:31:36;6;6;
74880;PMS5003;63427;49.654;6.596;2023-12-28T11:34:03;7;6;
74880;PMS5003;63427;49.654;6.596;2023-12-28T11:38:53;5;4;
74880;PMS5003;63427;49.654;6.596;2023-12-28T11:41:19;7;7;
74880;PMS5003;63427;49.654;6.596;2023-12-28T11:43:43;6;5;
74880;PMS5003;63427;49.654;6.596;2023-12-28T11:46:09;6;5;
74880;PMS5003;63427;49.654;6.596;2023-12-28T11:48:34;6;6;
74880;PMS5003;63427;49.654;6.596;2023-12-28T11:51:06;6;6;
74880;PMS5003;63427;49.654;6.596;2023-12-28T11:58:16;5;5;
74880;PMS5003;63427;49.654;6.596;2023-12-28T12:00:42;6;6;
74880;PMS5003;63427;49.654;6.596;2023-12-28T12:03:09;4;4;
74880;PMS5003;63427;49.654;6.596;2023-12-28T12:05:32;4;4;
74880;PMS5003;63427;49.654;6.596;2023-12-28T12:07:58;5;5;
74880;PMS5003;63427;49.654;6.596;2023-12-28T12:10:23;3;3;
74880;PMS5003;63427;49.654;6.596;2023-12-28T12:12:51;3;3;
74880;PMS5003;63427;49.654;6.596;2023-12-28T12:15:14;4;4;
74880;PMS5003;63427;49.654;6.596;2023-12-28T12:17:40;4;4;
74880;PMS5003;63427;49.654;6.596;2023-12-28T12:20:05;4;4;
74880;PMS5003;63427;49.654;6.596;2023-12-28T12:22:31;2;2;
74880;PMS5003;63427;49.654;6.596;2023-12-28T12:24:56;4;4;
74880;PMS5003;63427;49.654;6.596;2023-12-28T12:27:22;4;4;
74880;PMS5003;63427;49.654;6.596;2023-12-28T12:29:47;4;4;
74880;PMS5003;63427;49.654;6.596;2023-12-28T12:32:12;3;3;
74880;PMS5003;63427;49.654;6.596;2023-12-28T12:34:39;4;3;
74880;PMS5003;63427;49.654;6.596;2023-12-28T12:37:04;4;4;
74880;PMS5003;63427;49.654;6.596;2023-12-28T12:39:29;3;3;
74880;PMS5003;63427;49.654;6.596;2023-12-28T12:41:54;3;3;
74880;PMS5003;63427;49.654;6.596;2023-12-28T12:44:20;1;1;
74880;PMS5003;63427;49.654;6.596;2023-12-28T12:46:48;2;2;
74880;PMS5003;63427;49.654;6.596;2023-12-28T12:54:02;3;2;
74880;PMS5003;63427;49.654;6.596;2023-12-28T12:56:27;2;2;
74880;PMS5003;63427;49.654;6.596;2023-12-28T12:58:53;3;3;
74880;PMS5003;63427;49.654;6.596;2023-12-28T13:01:18;3;3;
74880;PMS5003;63427;49.654;6.596;2023-12-28T13:03:43;2;2;
74880;PMS5003;63427;49.654;6.596;2023-12-28T13:06:09;3;3;
74880;PMS5003;63427;49.654;6.596;2023-12-28T13:08:35;2;2;
74880;PMS5003;63427;49.654;6.596;2023-12-28T13:11:00;2;2;
74880;PMS5003;63427;49.654;6.596;2023-12-28T13:13:26;2;2;
74880;PMS5003;63427;49.654;6.596;2023-12-28T13:15:51;4;4;
74880;PMS5003;63427;49.654;6.596;2023-12-28T13:18:16;3;3;
74880;PMS5003;63427;49.654;6.596;2023-12-28T13:20:42;3;3;
74880;PMS5003;63427;49.654;6.596;2023-12-28T13:23:07;4;4;
74880;PMS5003;63427;49.654;6.596;2023-12-28T13:25:32;4;4;
74880;PMS5003;63427;49.654;6.596;2023-12-28T13:27:58;4;4;
74880;PMS5003;63427;49.654;6.596;2023-12-28T13:30:23;4;4;
74880;PMS5003;63427;49.654;6.596;2023-12-28T13:32:49;3;3;
74880;PMS5003;63427;49.654;6.596;2023-12-28T13:35:14;3;3;
74880;PMS5003;63427;49.654;6.596;2023-12-28T13:37:40;5;5;
74880;PMS5003;63427;49.654;6.596;2023-12-28T13:40:05;4;4;
74880;PMS5003;63427;49.654;6.596;2023-12-28T13:42:30;5;5;
74880;PMS5003;63427;49.654;6.596;2023-12-28T13:44:56;6;5;
74880;PMS5003;63427;49.654;6.596;2023-12-28T13:47:21;7;7;
74880;PMS5003;63427;49.654;6.596;2023-12-28T13:49:47;4;4;
74880;PMS5003;63427;49.654;6.596;2023-12-28T13:52:12;4;4;
74880;PMS5003;63427;49.654;6.596;2023-12-28T13:54:37;6;6;
74880;PMS5003;63427;49.654;6.596;2023-12-28T13:57:03;6;5;
74880;PMS5003;63427;49.654;6.596;2023-12-28T13:59:28;6;5;
74880;PMS5003;63427;49.654;6.596;2023-12-28T14:01:54;4;4;
74880;PMS5003;63427;49.654;6.596;2023-12-28T14:06:45;5;5;
74880;PMS5003;63427;49.654;6.596;2023-12-28T14:09:10;5;5;
74880;PMS5003;63427;49.654;6.596;2023-12-28T14:11:35;7;6;
74880;PMS5003;63427;49.654;6.596;2023-12-28T14:14:01;5;5;
74880;PMS5003;63427;49.654;6.596;2023-12-28T14:16:27;7;7;
74880;PMS5003;63427;49.654;6.596;2023-12-28T14:18:52;5;5;
74880;PMS5003;63427;49.654;6.596;2023-12-28T14:21:18;5;5;
74880;PMS5003;63427;49.654;6.596;2023-12-28T14:23:43;6;6;
74880;PMS5003;63427;49.654;6.596;2023-12-28T14:26:10;7;7;
74880;PMS5003;63427;49.654;6.596;2023-12-28T14:28:34;8;7;
74880;PMS5003;63427;49.654;6.596;2023-12-28T14:31:00;8;8;
74880;PMS5003;63427;49.654;6.596;2023-12-28T14:33:25;5;5;
74880;PMS5003;63427;49.654;6.596;2023-12-28T14:35:50;6;6;
74880;PMS5003;63427;49.654;6.596;2023-12-28T14:38:16;6;6;
74880;PMS5003;63427;49.654;6.596;2023-12-28T14:40:41;7;7;
74880;PMS5003;63427;49.654;6.596;2023-12-28T14:43:06;8;7;
74880;PMS5003;63427;49.654;6.596;2023-12-28T14:45:31;7;6;
74880;PMS5003;63427;49.654;6.596;2023-12-28T14:47:57;8;7;
74880;PMS5003;63427;49.654;6.596;2023-12-28T14:50:22;5;5;
74880;PMS5003;63427;49.654;6.596;2023-12-28T14:52:48;7;7;
74880;PMS5003;63427;49.654;6.596;2023-12-28T14:57:39;7;7;
74880;PMS5003;63427;49.654;6.596;2023-12-28T15:00:05;8;8;
74880;PMS5003;63427;49.654;6.596;2023-12-28T15:02:30;7;7;
74880;PMS5003;63427;49.654;6.596;2023-12-28T15:04:56;8;7;
74880;PMS5003;63427;49.654;6.596;2023-12-28T15:09:46;6;6;
74880;PMS5003;63427;49.654;6.596;2023-12-28T15:12:12;7;7;
74880;PMS5003;63427;49.654;6.596;2023-12-28T15:14:38;6;6;
74880;PMS5003;63427;49.654;6.596;2023-12-28T15:17:03;6;6;
74880;PMS5003;63427;49.654;6.596;2023-12-28T15:19:28;7;7;
74880;PMS5003;63427;49.654;6.596;2023-12-28T15:21:54;6;6;
74880;PMS5003;63427;49.654;6.596;2023-12-28T15:29:10;8;8;
74880;PMS5003;63427;49.654;6.596;2023-12-28T15:31:36;8;8;
74880;PMS5003;63427;49.654;6.596;2023-12-28T15:34:01;8;6;
74880;PMS5003;63427;49.654;6.596;2023-12-28T15:36:27;6;6;
74880;PMS5003;63427;49.654;6.596;2023-12-28T15:38:53;6;6;
74880;PMS5003;63427;49.654;6.596;2023-12-28T15:41:18;7;6;
74880;PMS5003;63427;49.654;6.596;2023-12-28T15:43:43;7;6;
74880;PMS5003;63427;49.654;6.596;2023-12-28T15:46:09;6;6;
74880;PMS5003;63427;49.654;6.596;2023-12-28T15:48:34;7;6;
74880;PMS5003;63427;49.654;6.596;2023-12-28T15:51:00;6;6;
74880;PMS5003;63427;49.654;6.596;2023-12-28T15:53:25;6;6;
74880;PMS5003;63427;49.654;6.596;2023-12-28T15:55:51;5;5;
74880;PMS5003;63427;49.654;6.596;2023-12-28T15:58:16;7;6;
74880;PMS5003;63427;49.654;6.596;2023-12-28T16:00:42;7;7;
74880;PMS5003;63427;49.654;6.596;2023-12-28T16:03:07;9;8;
74880;PMS5003;63427;49.654;6.596;2023-12-28T16:05:33;5;5;
74880;PMS5003;63427;49.654;6.596;2023-12-28T16:08:00;8;8;
74880;PMS5003;63427;49.654;6.596;2023-12-28T16:10:24;7;7;
74880;PMS5003;63427;49.654;6.596;2023-12-28T16:12:49;6;6;
74880;PMS5003;63427;49.654;6.596;2023-12-28T16:15:31;7;7;
74880;PMS5003;63427;49.654;6.596;2023-12-28T16:17:40;9;7;
74880;PMS5003;63427;49.654;6.596;2023-12-28T16:20:06;7;7;
74880;PMS5003;63427;49.654;6.596;2023-12-28T16:22:31;8;8;
74880;PMS5003;63427;49.654;6.596;2023-12-28T16:24:58;9;8;
74880;PMS5003;63427;49.654;6.596;2023-12-28T16:27:22;8;8;
74880;PMS5003;63427;49.654;6.596;2023-12-28T16:29:48;6;6;
74880;PMS5003;63427;49.654;6.596;2023-12-28T16:32:13;7;7;
74880;PMS5003;63427;49.654;6.596;2023-12-28T16:34:39;8;8;
74880;PMS5003;63427;49.654;6.596;2023-12-28T16:37:05;10;9;
74880;PMS5003;63427;49.654;6.596;2023-12-28T16:39:30;7;7;
74880;PMS5003;63427;49.654;6.596;2023-12-28T16:41:56;8;8;
74880;PMS5003;63427;49.654;6.596;2023-12-28T16:44:21;8;7;
74880;PMS5003;63427;49.654;6.596;2023-12-28T16:46:47;8;8;
74880;PMS5003;63427;49.654;6.596;2023-12-28T16:49:12;8;8;
74880;PMS5003;63427;49.654;6.596;2023-12-28T16:51:38;10;10;
74880;PMS5003;63427;49.654;6.596;2023-12-28T16:54:03;9;9;
74880;PMS5003;63427;49.654;6.596;2023-12-28T16:56:29;9;9;
74880;PMS5003;63427;49.654;6.596;2023-12-28T17:04:00;7;7;
74880;PMS5003;63427;49.654;6.596;2023-12-28T17:06:12;7;7;
74880;PMS5003;63427;49.654;6.596;2023-12-28T17:08:37;8;8;
74880;PMS5003;63427;49.654;6.596;2023-12-28T17:11:03;7;7;
74880;PMS5003;63427;49.654;6.596;2023-12-28T17:13:28;5;5;
74880;PMS5003;63427;49.654;6.596;2023-12-28T17:15:53;8;8;
74880;PMS5003;63427;49.654;6.596;2023-12-28T17:18:19;7;6;
74880;PMS5003;63427;49.654;6.596;2023-12-28T17:20:44;7;7;
74880;PMS5003;63427;49.654;6.596;2023-12-28T17:23:12;7;7;
74880;PMS5003;63427;49.654;6.596;2023-12-28T17:25:37;7;7;
74880;PMS5003;63427;49.654;6.596;2023-12-28T17:28:03;8;7;
74880;PMS5003;63427;49.654;6.596;2023-12-28T17:30:26;7;6;
74880;PMS5003;63427;49.654;6.596;2023-12-28T17:32:52;6;6;
74880;PMS5003;63427;49.654;6.596;2023-12-28T17:35:18;7;7;
74880;PMS5003;63427;49.654;6.596;2023-12-28T17:37:43;7;7;
74880;PMS5003;63427;49.654;6.596;2023-12-28T17:40:09;8;7;
74880;PMS5003;63427;49.654;6.596;2023-12-28T17:42:34;6;6;
74880;PMS5003;63427;49.654;6.596;2023-12-28T17:45:00;6;6;
74880;PMS5003;63427;49.654;6.596;2023-12-28T17:47:26;6;6;
74880;PMS5003;63427;49.654;6.596;2023-12-28T17:49:51;5;5;
74880;PMS5003;63427;49.654;6.596;2023-12-28T17:52:17;6;6;
74880;PMS5003;63427;49.654;6.596;2023-12-28T17:54:42;6;6;
74880;PMS5003;63427;49.654;6.596;2023-12-28T17:57:08;6;5;
74880;PMS5003;63427;49.654;6.596;2023-12-28T17:59:33;5;5;
74880;PMS5003;63427;49.654;6.596;2023-12-28T18:01:58;5;5;
74880;PMS5003;63427;49.654;6.596;2023-12-28T18:04:24;6;6;
74880;PMS5003;63427;49.654;6.596;2023-12-28T18:06:49;6;6;
74880;PMS5003;63427;49.654;6.596;2023-12-28T18:09:15;6;4;